Time;durP1;ratioP1;P1;durP2;ratioP2;P2;SDS_P1;SDS_P2;PMS_P1;PMS_P2;Temp;Humidity;BMP_temperature;BMP_pressure;BME280_temperature;BME280_humidity;BME280_pressure;Samples;Min_cycle;Max_cycle;Signal;HPM_P1;HPM_P2
2022/03/02 00:02:08;;;;;;;23.80;13.70;;;-0.70;99.90;;;;;;4987119;28;20189;-37
2022/03/02 00:04:35;;;;;;;22.53;12.77;;;-0.80;99.90;;;;;;4988096;28;20257;-38
2022/03/02 00:07:01;;;;;;;19.17;12.80;;;-0.90;99.90;;;;;;5005071;28;20224;-38
2022/03/02 00:09:31;;;;;;;22.37;13.07;;;-1.00;99.90;;;;;;4987591;28;20183;-37
2022/03/02 00:11:57;;;;;;;23.83;13.17;;;-1.20;99.90;;;;;;5003665;28;20179;-38
2022/03/02 00:14:23;;;;;;;22.77;12.07;;;-1.20;99.90;;;;;;4986728;28;20269;-37
2022/03/02 00:16:49;;;;;;;21.43;12.67;;;-1.30;99.90;;;;;;5004142;28;20203;-37
2022/03/02 00:19:16;;;;;;;21.57;12.60;;;-1.20;99.90;;;;;;4990015;28;20179;-37
2022/03/02 00:21:45;;;;;;;23.20;13.80;;;-1.30;99.90;;;;;;4990573;28;20182;-37
2022/03/02 00:24:10;;;;;;;23.90;13.63;;;-1.30;99.90;;;;;;5005324;28;20242;-37
2022/03/02 00:26:36;;;;;;;21.73;12.33;;;-1.40;99.90;;;;;;4988654;28;20203;-37
2022/03/02 00:29:03;;;;;;;22.97;13.43;;;-1.40;99.90;;;;;;5003858;28;20229;-37
2022/03/02 00:31:29;;;;;;;25.77;14.00;;;-1.40;99.90;;;;;;4994423;28;20179;-37
2022/03/02 00:33:55;;;;;;;23.27;13.07;;;-1.30;99.90;;;;;;4978275;28;20595;-37
2022/03/02 00:36:21;;;;;;;24.23;13.43;;;-1.20;99.90;;;;;;4978594;28;20218;-37
2022/03/02 00:38:47;;;;;;;23.60;13.13;;;-1.10;99.90;;;;;;4995673;28;20183;-37
2022/03/02 00:41:13;;;;;;;22.33;13.23;;;-1.00;99.90;;;;;;4993428;28;20195;-37
2022/03/02 00:43:39;;;;;;;26.77;14.47;;;-1.10;99.90;;;;;;5030735;28;20178;-37
2022/03/02 00:46:05;;;;;;;25.33;13.93;;;-1.30;99.90;;;;;;4997852;28;20304;-37
2022/03/02 00:48:31;;;;;;;26.07;13.93;;;-1.30;99.90;;;;;;5030497;28;20182;-37
2022/03/02 00:50:57;;;;;;;27.23;15.23;;;-1.20;99.90;;;;;;5015021;28;20193;-37
2022/03/02 00:53:23;;;;;;;24.47;14.63;;;-1.10;99.90;;;;;;4997917;28;20186;-37
2022/03/02 00:55:49;;;;;;;26.43;13.97;;;-1.10;99.90;;;;;;4997372;28;20218;-37
2022/03/02 00:58:15;;;;;;;22.90;14.03;;;-1.10;99.90;;;;;;5030723;28;20189;-37
2022/03/02 01:00:41;;;;;;;25.63;14.13;;;-1.10;99.90;;;;;;5013483;28;20181;-37
2022/03/02 01:03:07;;;;;;;25.80;14.20;;;-1.30;99.90;;;;;;5031535;28;20658;-38
2022/03/02 01:05:33;;;;;;;23.50;13.97;;;-1.30;99.90;;;;;;4997663;28;20187;-37
2022/03/02 01:07:59;;;;;;;23.40;12.73;;;-1.30;99.90;;;;;;4998039;28;20182;-37
2022/03/02 01:10:25;;;;;;;24.27;14.40;;;-1.30;99.90;;;;;;4998256;28;20202;-38
2022/03/02 01:12:51;;;;;;;22.10;13.13;;;-1.30;99.90;;;;;;5032481;28;20186;-38
2022/03/02 01:15:17;;;;;;;23.70;13.60;;;-1.30;99.90;;;;;;5013611;28;20206;-37
2022/03/02 01:17:43;;;;;;;21.80;13.00;;;-1.30;99.90;;;;;;4998007;28;20245;-37
2022/03/02 01:20:11;;;;;;;22.13;12.27;;;-1.30;99.90;;;;;;4996467;28;20260;-37
2022/03/02 01:22:38;;;;;;;21.57;12.53;;;-1.30;99.90;;;;;;4996932;28;20183;-37
2022/03/02 01:25:06;;;;;;;20.37;12.80;;;-1.30;99.90;;;;;;5034268;28;20217;-37
2022/03/02 01:27:32;;;;;;;21.90;13.17;;;-1.30;99.90;;;;;;5017580;28;20203;-37
2022/03/02 01:29:58;;;;;;;22.10;12.43;;;-1.40;99.90;;;;;;5033778;28;20282;-37
2022/03/02 01:32:24;;;;;;;26.47;12.73;;;-1.40;99.90;;;;;;5000904;28;20182;-37
2022/03/02 01:34:50;;;;;;;22.37;12.47;;;-1.40;99.90;;;;;;5001384;28;20183;-37
2022/03/02 01:37:17;;;;;;;24.73;12.70;;;-1.40;99.90;;;;;;5000297;28;20198;-35
2022/03/02 01:39:43;;;;;;;19.93;12.00;;;-1.40;99.90;;;;;;5033252;28;20631;-35
2022/03/02 01:42:10;;;;;;;21.17;12.70;;;-1.40;99.90;;;;;;5001616;28;20631;-35
2022/03/02 01:44:37;;;;;;;19.07;12.10;;;-1.50;99.90;;;;;;5004787;28;20229;-35
2022/03/02 01:47:04;;;;;;;21.77;12.23;;;-1.40;99.90;;;;;;5021445;28;20198;-35
2022/03/02 01:49:30;;;;;;;21.90;12.83;;;-1.50;99.90;;;;;;5005598;28;20182;-35
2022/03/02 01:51:56;;;;;;;21.43;11.93;;;-1.50;99.90;;;;;;5037931;28;20262;-35
2022/03/02 01:54:22;;;;;;;22.17;13.00;;;-1.50;99.90;;;;;;5021310;28;20179;-35
2022/03/02 01:56:49;;;;;;;21.77;12.10;;;-1.50;99.90;;;;;;5005165;28;20677;-35
2022/03/02 01:59:15;;;;;;;24.47;12.97;;;-1.50;99.90;;;;;;5005218;28;20183;-35
2022/03/02 02:01:42;;;;;;;21.97;12.63;;;-1.50;99.90;;;;;;5021842;28;20194;-36
2022/03/02 02:04:08;;;;;;;18.90;11.60;;;-1.50;99.90;;;;;;5038106;28;20198;-35
2022/03/02 02:06:34;;;;;;;19.60;12.27;;;-1.50;99.90;;;;;;5005378;28;20202;-36
2022/03/02 02:09:00;;;;;;;20.80;11.73;;;-1.50;99.90;;;;;;5021692;28;20185;-35
2022/03/02 02:11:27;;;;;;;23.17;11.93;;;-1.40;99.90;;;;;;5005432;28;20198;-35
2022/03/02 02:13:53;;;;;;;22.97;12.30;;;-1.50;99.90;;;;;;5017813;28;20186;-35
2022/03/02 02:16:22;;;;;;;21.40;12.40;;;-1.40;99.90;;;;;;5000017;28;20220;-35
2022/03/02 02:18:50;;;;;;;20.80;12.67;;;-1.50;99.90;;;;;;5001857;28;20179;-35
2022/03/02 02:21:18;;;;;;;23.13;12.80;;;-1.50;99.90;;;;;;5033413;28;20288;-36
2022/03/02 02:23:44;;;;;;;20.73;12.60;;;-1.40;99.90;;;;;;5015380;28;20174;-35
2022/03/02 02:26:10;;;;;;;22.77;12.80;;;-1.40;99.90;;;;;;4999384;28;20207;-35
2022/03/02 02:28:36;;;;;;;23.17;12.87;;;-1.40;99.90;;;;;;4999278;28;20273;-35
2022/03/02 02:34:50;;;;;;;20.93;12.73;;;-1.50;99.90;;;;;;5033007;28;20201;-35
2022/03/02 02:37:16;;;;;;;24.60;12.80;;;-1.50;99.90;;;;;;4999103;28;20194;-35
2022/03/02 02:39:42;;;;;;;20.33;12.53;;;-1.50;99.90;;;;;;5031614;28;20182;-36
2022/03/02 02:42:09;;;;;;;25.90;13.60;;;-1.60;99.90;;;;;;4999124;28;20213;-35
2022/03/02 02:44:36;;;;;;;27.33;14.67;;;-1.60;99.90;;;;;;5032074;28;20395;-35
2022/03/02 02:47:02;;;;;;;21.97;12.73;;;-1.70;99.90;;;;;;4998995;28;20199;-35
2022/03/02 02:49:28;;;;;;;22.17;12.53;;;-1.80;99.90;;;;;;4998711;28;20193;-35
2022/03/02 02:51:54;;;;;;;21.80;12.07;;;-1.80;99.90;;;;;;4998579;28;20245;-35
2022/03/02 02:54:21;;;;;;;22.67;12.53;;;-1.90;99.90;;;;;;5031545;28;20178;-35
2022/03/02 02:56:47;;;;;;;20.07;11.83;;;-1.90;99.90;;;;;;5015091;28;20257;-35
2022/03/02 02:59:13;;;;;;;18.60;11.40;;;-1.80;99.90;;;;;;5014859;28;20651;-35
2022/03/02 03:01:39;;;;;;;21.60;12.27;;;-1.70;99.90;;;;;;4999094;28;20206;-35
2022/03/02 03:04:06;;;;;;;21.50;12.10;;;-1.80;99.90;;;;;;4998743;28;20186;-35
2022/03/02 03:06:33;;;;;;;20.50;11.80;;;-1.80;99.90;;;;;;4998558;28;20194;-35
2022/03/02 03:08:59;;;;;;;26.13;11.63;;;-1.80;99.90;;;;;;4998430;28;20183;-35
2022/03/02 03:11:25;;;;;;;21.73;12.33;;;-1.80;99.90;;;;;;4998613;28;20194;-35
2022/03/02 03:13:51;;;;;;;21.43;12.13;;;-1.90;99.90;;;;;;4998524;28;20588;-35
2022/03/02 03:16:17;;;;;;;21.83;12.27;;;-2.00;99.90;;;;;;4998318;28;20253;-35
2022/03/02 03:18:44;;;;;;;20.60;11.97;;;-2.10;99.90;;;;;;5030732;28;20174;-35
2022/03/02 03:21:11;;;;;;;19.80;12.07;;;-2.20;99.90;;;;;;5014474;28;20206;-35
2022/03/02 03:23:37;;;;;;;21.60;12.57;;;-2.30;99.90;;;;;;4998289;28;20580;-35
2022/03/02 03:26:03;;;;;;;23.43;12.63;;;-2.30;99.90;;;;;;4998130;28;20301;-35
2022/03/02 03:28:29;;;;;;;22.53;12.53;;;-2.50;99.90;;;;;;4998163;28;20174;-35
2022/03/02 03:30:56;;;;;;;28.27;17.67;;;-2.60;99.90;;;;;;4998098;28;20248;-35
2022/03/02 03:33:22;;;;;;;23.13;12.87;;;-2.60;99.90;;;;;;5014903;28;20190;-35
2022/03/02 03:35:48;;;;;;;18.43;11.97;;;-2.50;99.90;;;;;;4997785;28;20221;-35
2022/03/02 03:38:14;;;;;;;20.27;11.60;;;-2.40;99.90;;;;;;5014385;28;20175;-35
2022/03/02 03:40:40;;;;;;;21.10;11.73;;;-2.30;99.90;;;;;;5032198;28;20174;-35
2022/03/02 03:43:06;;;;;;;22.07;12.17;;;-2.20;99.90;;;;;;5030942;28;20261;-35
2022/03/02 03:45:32;;;;;;;21.67;12.17;;;-2.10;99.90;;;;;;5013912;28;20179;-35
2022/03/02 03:47:58;;;;;;;20.70;11.83;;;-2.10;99.90;;;;;;5014015;28;20182;-35
2022/03/02 03:50:25;;;;;;;18.80;11.33;;;-2.10;99.90;;;;;;5030138;28;20670;-36
2022/03/02 03:52:51;;;;;;;21.77;11.87;;;-2.10;99.90;;;;;;4998093;28;20193;-35
2022/03/02 03:55:17;;;;;;;18.57;11.13;;;-2.10;99.90;;;;;;4997532;28;20202;-35
2022/03/02 03:57:43;;;;;;;21.00;11.90;;;-2.10;99.90;;;;;;4997657;28;20198;-35
2022/03/02 04:00:18;;;;;;;22.47;13.00;;;-2.10;99.90;;;;;;5013955;28;20175;-35
2022/03/02 04:02:45;;;;;;;23.30;12.27;;;-2.20;99.90;;;;;;5014197;28;20176;-35
2022/03/02 04:05:11;;;;;;;25.90;12.57;;;-2.20;99.90;;;;;;5013758;28;20202;-35
2022/03/02 04:07:38;;;;;;;23.40;11.83;;;-2.20;99.90;;;;;;5031374;28;20186;-35
2022/03/02 04:10:06;;;;;;;20.33;11.47;;;-2.30;99.90;;;;;;4997375;28;20209;-35
2022/03/02 04:12:32;;;;;;;20.17;11.27;;;-2.40;99.90;;;;;;4997662;28;20183;-35
2022/03/02 04:14:57;;;;;;;19.73;11.40;;;-2.50;99.90;;;;;;5014042;28;20183;-35
2022/03/02 04:17:24;;;;;;;20.03;11.87;;;-2.60;99.90;;;;;;4997199;28;20288;-35
2022/03/02 04:19:50;;;;;;;21.33;12.63;;;-2.70;99.90;;;;;;4996806;28;20185;-35
2022/03/02 04:22:16;;;;;;;21.47;12.07;;;-2.70;99.90;;;;;;4997476;28;20183;-35
2022/03/02 04:24:42;;;;;;;21.93;11.67;;;-2.70;99.90;;;;;;5013750;28;20193;-35
2022/03/02 04:27:08;;;;;;;18.40;11.40;;;-2.60;99.90;;;;;;5013525;28;20210;-35
2022/03/02 04:29:34;;;;;;;21.50;11.90;;;-2.60;99.90;;;;;;5013722;28;20178;-35
2022/03/02 04:32:01;;;;;;;22.73;11.97;;;-2.50;99.90;;;;;;5013622;28;20317;-35
2022/03/02 04:34:27;;;;;;;23.60;12.70;;;-2.50;99.90;;;;;;5029811;28;20193;-35
2022/03/02 04:36:53;;;;;;;21.13;12.83;;;-2.50;99.90;;;;;;4996864;28;20226;-35
2022/03/02 04:39:19;;;;;;;19.77;11.57;;;-2.50;99.90;;;;;;5030876;28;20611;-35
2022/03/02 04:41:45;;;;;;;19.70;11.70;;;-2.50;99.90;;;;;;4997106;28;20202;-35
2022/03/02 04:44:11;;;;;;;20.00;11.57;;;-2.50;99.90;;;;;;5029796;28;20185;-35
2022/03/02 04:46:37;;;;;;;20.97;12.10;;;-2.50;99.90;;;;;;4996836;28;20210;-35
2022/03/02 04:49:10;;;;;;;20.70;11.43;;;-2.60;99.90;;;;;;5013092;28;20253;-35
2022/03/02 04:51:40;;;;;;;20.90;11.10;;;-2.60;99.90;;;;;;5029517;28;20225;-36
2022/03/02 04:54:07;;;;;;;21.33;11.47;;;-2.60;99.90;;;;;;5029689;28;20194;-35
2022/03/02 04:56:33;;;;;;;19.00;11.03;;;-2.50;99.90;;;;;;5013525;28;20214;-35
2022/03/02 04:59:01;;;;;;;16.90;10.40;;;-2.50;99.90;;;;;;5002895;28;20181;-35
2022/03/02 05:01:28;;;;;;;15.37;9.73;;;-2.50;99.90;;;;;;5035960;28;20178;-35
2022/03/02 05:03:54;;;;;;;22.83;11.23;;;-2.60;99.90;;;;;;5003405;28;20266;-35
2022/03/02 05:06:20;;;;;;;17.40;10.53;;;-2.60;99.90;;;;;;5003310;28;20206;-35
2022/03/02 05:08:46;;;;;;;19.77;10.30;;;-2.60;99.90;;;;;;5003088;28;20190;-35
2022/03/02 05:11:11;;;;;;;18.90;10.43;;;-2.70;99.90;;;;;;5003215;28;20682;-35
2022/03/02 05:13:37;;;;;;;18.60;10.93;;;-2.70;99.90;;;;;;5036174;28;20178;-35
2022/03/02 05:18:41;;;;;;;20.70;10.40;;;-2.80;99.90;;;;;;4937976;29;20731;-30
2022/03/02 05:21:07;;;;;;;24.00;11.37;;;-2.90;99.90;;;;;;4937987;29;20181;-30
2022/03/02 05:23:33;;;;;;;16.60;10.37;;;-2.90;99.90;;;;;;4938704;29;20180;-29
2022/03/02 05:25:59;;;;;;;22.90;11.77;;;-3.00;99.90;;;;;;4938594;29;20178;-29
2022/03/02 05:28:25;;;;;;;22.50;11.67;;;-3.10;99.90;;;;;;4938503;29;20188;-30
2022/03/02 05:30:50;;;;;;;22.63;12.53;;;-3.10;99.90;;;;;;4938236;29;20181;-29
2022/03/02 05:33:16;;;;;;;21.70;11.37;;;-3.20;99.90;;;;;;4938460;29;20565;-29
2022/03/02 05:35:42;;;;;;;24.43;12.97;;;-3.30;99.90;;;;;;4938402;29;20233;-29
2022/03/02 05:38:08;;;;;;;20.93;12.37;;;-3.40;99.90;;;;;;4954461;28;20204;-29
2022/03/02 05:40:33;;;;;;;21.50;12.67;;;-3.40;99.90;;;;;;4938117;29;20190;-29
2022/03/02 05:42:59;;;;;;;24.27;12.73;;;-3.50;99.90;;;;;;4938288;29;20193;-29
2022/03/02 05:45:25;;;;;;;23.47;12.20;;;-3.50;99.90;;;;;;4938442;29;20174;-29
2022/03/02 05:47:51;;;;;;;20.47;12.90;;;-3.40;99.90;;;;;;4938224;29;20210;-29
2022/03/02 05:50:17;;;;;;;20.30;11.70;;;-3.50;99.90;;;;;;4922390;29;20190;-29
2022/03/02 05:52:43;;;;;;;22.40;11.90;;;-3.50;99.90;;;;;;4922702;29;20276;-29
2022/03/02 05:55:09;;;;;;;24.63;12.87;;;-3.60;99.90;;;;;;4938270;29;20341;-29
2022/03/02 05:57:35;;;;;;;28.73;13.03;;;-3.60;99.90;;;;;;4938159;29;20198;-29
2022/03/02 06:00:01;;;;;;;22.60;13.10;;;-3.60;99.90;;;;;;4938105;29;20188;-29
2022/03/02 06:02:26;;;;;;;23.10;12.43;;;-3.60;99.90;;;;;;4922336;29;20178;-29
2022/03/02 06:04:52;;;;;;;20.53;11.63;;;-3.60;99.90;;;;;;4922130;29;20182;-29
2022/03/02 06:07:18;;;;;;;20.47;11.53;;;-3.50;99.90;;;;;;4938474;29;20360;-29
2022/03/02 06:09:44;;;;;;;24.20;12.33;;;-3.40;99.90;;;;;;4919434;29;20192;-29
2022/03/02 06:12:11;;;;;;;21.87;11.80;;;-3.40;99.90;;;;;;4934929;29;20574;-29
2022/03/02 06:14:37;;;;;;;23.90;12.30;;;-3.20;99.90;;;;;;4928610;29;20189;-29
2022/03/02 06:17:03;;;;;;;20.60;11.40;;;-3.10;99.90;;;;;;4924665;29;20206;-29
2022/03/02 06:19:29;;;;;;;22.97;13.00;;;-3.00;99.90;;;;;;4948360;29;20267;-29
2022/03/02 06:21:57;;;;;;;21.37;12.40;;;-3.00;99.90;;;;;;4935918;29;20254;-29
2022/03/02 06:24:23;;;;;;;22.83;12.83;;;-2.90;99.90;;;;;;4947278;28;20210;-29
2022/03/02 06:26:49;;;;;;;21.47;13.00;;;-2.90;99.90;;;;;;4944959;29;20202;-30
2022/03/02 06:29:16;;;;;;;20.83;12.57;;;-2.80;99.90;;;;;;4925177;29;20233;-30
2022/03/02 06:31:42;;;;;;;23.00;13.60;;;-2.70;99.90;;;;;;4929345;29;20189;-29
2022/03/02 06:34:07;;;;;;;25.70;12.40;;;-2.70;99.90;;;;;;4934730;28;20201;-29
2022/03/02 06:36:33;;;;;;;24.37;13.07;;;-2.60;99.90;;;;;;4918874;29;20225;-29
2022/03/02 06:38:59;;;;;;;27.03;14.13;;;-2.50;99.90;;;;;;4918470;29;20182;-29
2022/03/02 06:41:30;;;;;;;25.33;14.57;;;-2.50;99.90;;;;;;4918594;29;20193;-29
2022/03/02 06:44:32;;;;;;;24.73;14.53;;;-2.40;99.90;;;;;;4935857;29;20256;-30
2022/03/02 06:47:09;;;;;;;27.10;13.50;;;-2.30;99.90;;;;;;4910552;29;20573;-29
2022/03/02 06:49:45;;;;;;;29.10;16.30;;;-2.30;99.90;;;;;;4926103;29;20257;-29
2022/03/02 06:52:12;;;;;;;31.43;18.97;;;-2.20;99.90;;;;;;4918961;29;20182;-30
2022/03/02 06:54:42;;;;;;;35.83;18.97;;;-2.20;99.90;;;;;;4938205;29;20178;-30
2022/03/02 06:57:13;;;;;;;28.20;16.53;;;-2.20;99.90;;;;;;4950259;28;20225;-29
2022/03/02 06:59:44;;;;;;;27.00;14.63;;;-2.20;99.90;;;;;;4934137;29;20213;-30
2022/03/02 07:02:12;;;;;;;26.27;14.70;;;-2.10;99.90;;;;;;4918015;29;20174;-29
2022/03/02 07:04:40;;;;;;;28.90;16.57;;;-2.10;99.90;;;;;;4935473;29;20186;-30
2022/03/02 07:07:08;;;;;;;31.27;16.43;;;-2.10;99.90;;;;;;4910905;29;20284;-29
2022/03/02 07:09:36;;;;;;;34.17;17.00;;;-2.10;99.90;;;;;;4921734;29;20197;-30
2022/03/02 07:12:05;;;;;;;43.13;19.33;;;-2.00;99.90;;;;;;4907239;29;20186;-29
2022/03/02 07:14:33;;;;;;;34.23;18.10;;;-1.90;99.90;;;;;;4925517;29;20187;-30
2022/03/02 07:17:00;;;;;;;28.43;15.20;;;-1.90;99.90;;;;;;4922447;29;20207;-30
2022/03/02 07:19:27;;;;;;;28.43;15.50;;;-1.80;99.90;;;;;;4924168;29;20206;-30
2022/03/02 07:21:55;;;;;;;26.90;15.10;;;-1.80;99.90;;;;;;4923227;29;20179;-29
2022/03/02 07:24:22;;;;;;;25.20;13.93;;;-1.70;99.90;;;;;;4923241;29;20187;-30
2022/03/02 07:26:54;;;;;;;23.23;13.73;;;-1.70;99.90;;;;;;4925738;29;20230;-30
2022/03/02 07:29:21;;;;;;;24.67;14.43;;;-1.60;99.90;;;;;;4924596;29;20188;-29
2022/03/02 07:31:51;;;;;;;22.90;14.60;;;-1.50;99.90;;;;;;4924197;29;20224;-30
2022/03/02 07:34:17;;;;;;;23.87;14.87;;;-1.50;99.90;;;;;;4930135;29;20201;-30
2022/03/02 07:36:44;;;;;;;27.00;15.17;;;-1.50;99.90;;;;;;4923069;29;20640;-29
2022/03/02 07:39:10;;;;;;;23.80;14.07;;;-1.40;99.90;;;;;;4902773;29;20186;-30
2022/03/02 07:41:37;;;;;;;27.23;15.27;;;-1.30;99.90;;;;;;4928984;29;20184;-30
2022/03/02 07:44:04;;;;;;;29.27;16.20;;;-1.30;99.90;;;;;;4917706;29;20189;-29
2022/03/02 07:46:30;;;;;;;28.20;17.03;;;-1.20;99.90;;;;;;4933266;29;20680;-30
2022/03/02 07:48:57;;;;;;;26.93;15.90;;;-1.20;99.90;;;;;;4949026;28;20190;-30
2022/03/02 07:51:24;;;;;;;22.90;13.87;;;-1.10;99.90;;;;;;4917568;29;20659;-29
2022/03/02 07:53:51;;;;;;;25.00;14.63;;;-1.00;99.90;;;;;;4933540;29;20188;-29
2022/03/02 07:56:19;;;;;;;27.47;15.73;;;-1.00;99.90;;;;;;4933080;29;20576;-30
2022/03/02 07:58:46;;;;;;;28.63;16.20;;;-0.90;99.90;;;;;;4934273;29;20337;-30
2022/03/02 08:01:18;;;;;;;30.33;16.40;;;-0.80;99.90;;;;;;4917377;29;20200;-30
2022/03/02 08:03:44;;;;;;;29.23;16.53;;;-0.70;99.90;;;;;;4933263;29;20186;-30
2022/03/02 08:06:10;;;;;;;27.47;15.50;;;-0.60;99.90;;;;;;4918308;29;20209;-30
2022/03/02 08:08:39;;;;;;;24.43;14.10;;;-0.50;99.90;;;;;;4916211;29;20201;-30
2022/03/02 08:11:05;;;;;;;21.63;13.97;;;-0.30;99.90;;;;;;4931516;29;20225;-30
2022/03/02 08:13:34;;;;;;;24.97;13.33;;;-0.20;99.90;;;;;;4914820;29;20182;-30
2022/03/02 08:16:01;;;;;;;22.80;12.30;;;0.00;99.90;;;;;;4931942;29;20217;-29
2022/03/02 08:18:28;;;;;;;21.20;13.70;;;0.10;99.90;;;;;;4921897;29;20202;-30
2022/03/02 08:20:59;;;;;;;21.10;12.93;;;0.30;99.90;;;;;;4923510;29;20635;-30
2022/03/02 08:23:38;;;;;;;22.73;14.30;;;0.40;99.90;;;;;;4923740;29;20261;-30
2022/03/02 08:26:05;;;;;;;23.93;13.80;;;0.50;99.90;;;;;;4905319;29;20719;-30
2022/03/02 08:28:34;;;;;;;20.80;12.70;;;0.70;99.90;;;;;;4924325;29;20182;-30
2022/03/02 08:31:01;;;;;;;23.07;13.57;;;0.80;99.90;;;;;;4911568;29;20644;-30
2022/03/02 08:33:29;;;;;;;22.80;13.93;;;0.90;99.90;;;;;;4916505;29;20185;-29
2022/03/02 08:35:56;;;;;;;19.27;12.57;;;0.90;99.90;;;;;;4914676;29;20215;-30
2022/03/02 08:38:25;;;;;;;19.93;12.37;;;1.00;99.90;;;;;;4913967;29;20263;-29
2022/03/02 08:40:52;;;;;;;22.20;13.77;;;1.10;99.90;;;;;;4918917;29;20198;-30
2022/03/02 08:43:20;;;;;;;19.17;12.47;;;1.20;99.90;;;;;;4929255;29;20644;-30
2022/03/02 08:45:50;;;;;;;21.13;12.80;;;1.30;99.90;;;;;;4916335;29;20187;-30
2022/03/02 08:48:19;;;;;;;18.97;12.77;;;1.40;99.90;;;;;;4948422;28;20191;-30
2022/03/02 08:50:45;;;;;;;21.00;13.00;;;1.40;99.90;;;;;;4916534;29;20225;-30
2022/03/02 08:53:17;;;;;;;22.37;14.03;;;1.50;99.90;;;;;;4915654;29;20190;-30
2022/03/02 08:55:44;;;;;;;23.50;13.53;;;1.60;99.90;;;;;;4922038;29;20217;-30
2022/03/02 08:58:10;;;;;;;19.63;13.17;;;1.60;99.90;;;;;;4917251;29;20201;-30
2022/03/02 09:00:40;;;;;;;20.73;13.13;;;1.70;99.90;;;;;;4924216;29;20181;-30
2022/03/02 09:03:06;;;;;;;21.40;13.27;;;1.80;99.90;;;;;;4930226;29;20194;-30
2022/03/02 09:05:34;;;;;;;19.53;12.40;;;1.80;99.90;;;;;;4922544;29;20179;-31
2022/03/02 09:08:00;;;;;;;22.07;13.17;;;2.00;99.90;;;;;;4906368;29;20300;-30
2022/03/02 09:10:28;;;;;;;21.73;13.07;;;2.00;99.90;;;;;;4938785;29;20255;-29
2022/03/02 09:12:56;;;;;;;23.57;13.13;;;1.90;99.90;;;;;;4924239;29;20206;-30
2022/03/02 09:15:22;;;;;;;19.77;12.57;;;2.00;99.90;;;;;;4913268;29;20209;-31
2022/03/02 09:17:49;;;;;;;20.60;13.60;;;2.10;99.90;;;;;;4915619;29;20213;-30
2022/03/02 09:20:15;;;;;;;20.13;12.53;;;2.10;99.90;;;;;;4914409;29;20173;-30
2022/03/02 09:22:41;;;;;;;17.83;12.90;;;2.20;99.90;;;;;;4913225;29;20201;-30
2022/03/02 09:25:10;;;;;;;20.20;12.93;;;2.30;99.90;;;;;;4912858;29;20197;-30
2022/03/02 09:27:36;;;;;;;20.63;12.80;;;2.40;99.90;;;;;;4913064;29;20205;-30
2022/03/02 09:30:08;;;;;;;20.73;13.73;;;2.40;99.90;;;;;;4915778;29;20190;-31
2022/03/02 09:32:34;;;;;;;19.13;12.53;;;2.40;99.90;;;;;;4923924;29;20225;-30
2022/03/02 09:35:01;;;;;;;18.37;12.77;;;2.40;99.90;;;;;;4914170;29;20301;-30
2022/03/02 09:37:37;;;;;;;24.27;14.87;;;2.50;99.90;;;;;;4919195;29;20225;-31
2022/03/02 09:40:05;;;;;;;21.63;13.20;;;2.60;99.90;;;;;;4931467;29;20193;-30
2022/03/02 09:42:45;;;;;;;18.90;12.23;;;2.50;99.90;;;;;;4910635;29;20209;-30
2022/03/02 09:45:11;;;;;;;19.27;12.60;;;2.50;99.90;;;;;;4915890;29;20557;-30
2022/03/02 09:47:50;;;;;;;18.37;12.47;;;2.50;99.90;;;;;;4927304;29;20209;-30
2022/03/02 09:50:18;;;;;;;19.60;12.03;;;2.70;99.90;;;;;;4905873;29;20206;-30
2022/03/02 09:52:45;;;;;;;23.57;14.50;;;2.70;99.90;;;;;;4925705;29;20593;-31
2022/03/02 09:55:14;;;;;;;21.80;13.43;;;2.70;99.90;;;;;;4925735;29;20221;-30
2022/03/02 09:57:46;;;;;;;17.87;11.57;;;2.90;99.90;;;;;;4910130;29;20208;-30
2022/03/02 10:00:14;;;;;;;20.13;13.57;;;3.10;99.90;;;;;;4924133;28;20251;-30
2022/03/02 10:02:45;;;;;;;20.40;12.37;;;3.30;99.90;;;;;;4928876;29;20641;-30
2022/03/02 10:05:15;;;;;;;19.43;12.17;;;3.40;99.90;;;;;;4922541;29;20213;-30
2022/03/02 10:07:45;;;;;;;16.00;11.03;;;3.60;99.90;;;;;;4924166;29;20298;-31
2022/03/02 10:10:14;;;;;;;18.83;11.63;;;3.80;99.90;;;;;;4927232;29;20221;-30
2022/03/02 10:12:40;;;;;;;17.60;10.90;;;3.90;99.90;;;;;;4910540;29;20192;-31
2022/03/02 10:15:14;;;;;;;19.33;11.60;;;4.10;99.90;;;;;;4938011;28;20279;-30
2022/03/02 10:17:43;;;;;;;18.17;11.83;;;4.20;99.90;;;;;;4923004;29;20238;-32
2022/03/02 10:20:12;;;;;;;18.37;11.27;;;4.30;99.90;;;;;;4907858;29;20183;-30
2022/03/02 10:22:40;;;;;;;19.73;11.90;;;4.30;99.90;;;;;;4922258;29;20178;-30
2022/03/02 10:25:10;;;;;;;16.80;11.50;;;4.40;99.90;;;;;;4920952;29;20679;-30
2022/03/02 10:27:49;;;;;;;17.17;10.67;;;4.40;99.90;;;;;;4906989;29;20191;-30
2022/03/02 10:30:16;;;;;;;20.83;11.00;;;4.50;99.90;;;;;;4926841;29;20213;-31
2022/03/02 10:32:43;;;;;;;17.50;10.73;;;4.50;99.90;;;;;;4940582;28;20231;-30
2022/03/02 10:35:12;;;;;;;16.17;10.80;;;4.60;99.90;;;;;;4934717;29;20230;-30
2022/03/02 10:37:53;;;;;;;18.80;11.80;;;4.70;99.90;;;;;;4932745;29;20206;-30
2022/03/02 10:40:24;;;;;;;17.67;11.70;;;4.80;99.90;;;;;;4915828;29;20226;-30
2022/03/02 10:43:00;;;;;;;17.57;11.43;;;4.90;99.90;;;;;;4932382;29;20194;-30
2022/03/02 10:45:27;;;;;;;15.30;10.40;;;5.00;99.90;;;;;;4928794;29;20252;-30
2022/03/02 10:48:22;;;;;;;17.20;11.90;;;5.00;99.90;;;;;;4931669;29;20209;-30
2022/03/02 10:50:55;;;;;;;17.23;12.20;;;5.10;99.90;;;;;;4953593;28;20194;-30
2022/03/02 10:53:26;;;;;;;16.27;11.50;;;5.00;99.90;;;;;;4969522;28;20194;-30
2022/03/02 10:55:57;;;;;;;17.90;11.97;;;5.00;99.90;;;;;;4954396;28;20310;-30
2022/03/02 10:58:29;;;;;;;19.70;13.00;;;5.10;99.90;;;;;;4932814;28;20660;-30
2022/03/02 11:00:56;;;;;;;19.80;12.27;;;5.10;99.90;;;;;;4938416;29;20193;-30
2022/03/02 11:03:23;;;;;;;16.53;12.17;;;5.20;99.90;;;;;;4941003;29;20179;-31
2022/03/02 11:05:50;;;;;;;17.90;12.30;;;5.30;99.90;;;;;;4915138;29;20191;-31
2022/03/02 11:08:18;;;;;;;22.70;12.63;;;5.40;99.90;;;;;;4902294;29;20236;-30
2022/03/02 11:10:45;;;;;;;18.07;11.83;;;5.50;99.90;;;;;;4923643;29;20193;-30
2022/03/02 11:13:12;;;;;;;23.13;12.53;;;5.60;99.90;;;;;;4928619;29;20637;-30
2022/03/02 11:15:46;;;;;;;17.63;12.00;;;5.60;99.90;;;;;;4933984;29;20204;-30
2022/03/02 11:18:16;;;;;;;19.40;12.63;;;5.70;99.90;;;;;;4918791;29;20200;-31
2022/03/02 11:20:57;;;;;;;19.77;13.43;;;5.60;99.90;;;;;;4909519;29;20215;-31
2022/03/02 11:23:24;;;;;;;18.73;12.63;;;5.60;99.90;;;;;;4924772;29;20200;-31
2022/03/02 11:25:54;;;;;;;24.60;14.23;;;5.60;99.90;;;;;;4907674;29;20210;-31
2022/03/02 11:28:24;;;;;;;22.60;13.53;;;5.70;99.90;;;;;;4925045;29;20185;-32
2022/03/02 11:31:04;;;;;;;19.47;13.07;;;5.70;99.90;;;;;;4925728;29;20189;-31
2022/03/02 11:33:31;;;;;;;17.53;12.13;;;5.80;99.90;;;;;;4924713;29;20211;-31
2022/03/02 11:36:17;;;;;;;20.43;12.50;;;5.90;99.90;;;;;;4921931;29;20260;-31
2022/03/02 11:38:46;;;;;;;18.07;13.20;;;6.00;99.90;;;;;;4955023;28;20183;-30
2022/03/02 11:41:13;;;;;;;19.67;12.50;;;6.00;99.90;;;;;;4923223;29;20544;-31
2022/03/02 11:43:41;;;;;;;17.93;11.87;;;6.10;99.90;;;;;;4925893;29;20183;-31
2022/03/02 11:46:10;;;;;;;18.23;13.00;;;6.20;99.90;;;;;;4921438;29;20227;-31
2022/03/02 11:48:39;;;;;;;18.77;13.43;;;6.20;99.90;;;;;;4923391;29;20186;-30
2022/03/02 11:51:27;;;;;;;18.63;12.30;;;6.20;99.90;;;;;;4906935;29;20196;-30
2022/03/02 11:53:56;;;;;;;19.77;13.30;;;6.30;99.90;;;;;;4926036;29;20193;-31
2022/03/02 11:56:24;;;;;;;16.23;11.90;;;6.30;99.90;;;;;;4921870;29;20219;-32
2022/03/02 11:59:11;;;;;;;15.40;11.47;;;6.40;99.90;;;;;;4926212;29;20242;-31
2022/03/02 12:01:47;;;;;;;17.73;12.23;;;6.40;99.90;;;;;;4942954;28;20203;-30
2022/03/02 12:04:16;;;;;;;16.77;11.83;;;6.50;99.90;;;;;;4935552;28;20189;-31
2022/03/02 12:06:54;;;;;;;17.70;11.43;;;6.50;99.90;;;;;;4924162;29;20219;-31
2022/03/02 12:09:34;;;;;;;16.53;11.30;;;6.60;99.90;;;;;;4932747;29;20209;-32
2022/03/02 12:12:16;;;;;;;16.40;10.03;;;6.50;99.90;;;;;;4942081;29;20217;-31
2022/03/02 12:14:56;;;;;;;16.57;11.23;;;6.60;99.90;;;;;;4953382;28;20188;-31
2022/03/02 12:17:36;;;;;;;16.90;11.00;;;6.60;99.90;;;;;;4936245;29;20259;-31
2022/03/02 12:20:09;;;;;;;17.13;11.17;;;6.60;99.90;;;;;;4953276;28;20181;-31
2022/03/02 12:22:41;;;;;;;15.33;10.23;;;6.70;99.90;;;;;;4951959;28;20187;-31
2022/03/02 12:25:13;;;;;;;15.23;10.77;;;6.70;99.90;;;;;;4951669;28;20187;-33
2022/03/02 12:27:42;;;;;;;16.53;10.33;;;6.70;99.90;;;;;;4951082;28;20220;-31
2022/03/02 12:30:11;;;;;;;16.33;10.73;;;6.80;99.90;;;;;;4953036;28;20187;-31
2022/03/02 12:32:40;;;;;;;14.90;10.43;;;6.90;99.90;;;;;;4932259;29;20279;-31
2022/03/02 12:35:11;;;;;;;15.00;10.70;;;7.00;99.90;;;;;;4932795;29;20189;-31
2022/03/02 12:37:37;;;;;;;17.13;10.97;;;7.00;99.90;;;;;;4933695;29;20285;-32
2022/03/02 12:40:06;;;;;;;15.63;10.30;;;7.10;99.90;;;;;;4932223;29;20524;-32
2022/03/02 12:42:32;;;;;;;15.83;10.10;;;7.00;99.90;;;;;;4938929;29;20244;-31